Terminal Aerodrome Forecast
Issued by NWS Missoula, MT

Home | Current Version | Previous Version | Text Only | Print | Product List | Glossary On
Versions: 1 2 3 4 5 6 7 8 9 10 11 12 13 14 15
000
FTUS45 KMSO 251133
TAFBTM
TAF
KBTM 251133Z 2512/2612 VRB04KT P6SM SCT050 BKN070
     FM251900 31004KT P6SM VCSH BKN050
     FM260000 09005KT P6SM OVC100
     FM260500 02006KT 6SM -SNRA BR OVC040
     FM260900 02008KT 4SM -SN BR OVC020=

USA.gov is the U.S. government's official web portal to all federal, state and local government web resources and services.